sensor_id;sensor_type;location;lat;lon;timestamp;P1;durP1;ratioP1;P2;durP2;ratioP2
25511;SDS011;13414;44.534;18.700;2022-08-23T00:01:59;4.53;;;2.83;;
25511;SDS011;13414;44.534;18.700;2022-08-23T00:04:30;4.28;;;2.72;;
25511;SDS011;13414;44.534;18.700;2022-08-23T00:06:59;9.90;;;2.63;;
25511;SDS011;13414;44.534;18.700;2022-08-23T00:09:27;6.25;;;2.60;;
25511;SDS011;13414;44.534;18.700;2022-08-23T00:12:02;9.20;;;2.53;;
25511;SDS011;13414;44.534;18.700;2022-08-23T00:14:33;9.23;;;2.70;;
25511;SDS011;13414;44.534;18.700;2022-08-23T00:17:03;5.75;;;2.53;;
25511;SDS011;13414;44.534;18.700;2022-08-23T00:19:33;9.25;;;3.20;;
25511;SDS011;13414;44.534;18.700;2022-08-23T00:22:01;5.45;;;2.80;;
25511;SDS011;13414;44.534;18.700;2022-08-23T00:24:29;6.47;;;2.67;;
25511;SDS011;13414;44.534;18.700;2022-08-23T00:26:57;4.25;;;2.58;;
25511;SDS011;13414;44.534;18.700;2022-08-23T00:29:27;6.15;;;2.78;;
25511;SDS011;13414;44.534;18.700;2022-08-23T00:31:56;5.95;;;3.40;;
25511;SDS011;13414;44.534;18.700;2022-08-23T00:34:25;6.32;;;2.88;;
25511;SDS011;13414;44.534;18.700;2022-08-23T00:36:53;8.65;;;2.88;;
25511;SDS011;13414;44.534;18.700;2022-08-23T00:39:21;6.07;;;3.25;;
25511;SDS011;13414;44.534;18.700;2022-08-23T00:41:49;7.90;;;2.97;;
25511;SDS011;13414;44.534;18.700;2022-08-23T00:44:19;5.50;;;3.20;;
25511;SDS011;13414;44.534;18.700;2022-08-23T00:47:07;6.10;;;3.20;;
25511;SDS011;13414;44.534;18.700;2022-08-23T00:49:55;5.50;;;3.17;;
25511;SDS011;13414;44.534;18.700;2022-08-23T00:52:29;4.95;;;2.60;;
25511;SDS011;13414;44.534;18.700;2022-08-23T00:55:00;5.13;;;3.20;;
25511;SDS011;13414;44.534;18.700;2022-08-23T00:57:27;10.88;;;3.20;;
25511;SDS011;13414;44.534;18.700;2022-08-23T00:59:56;5.32;;;3.03;;
25511;SDS011;13414;44.534;18.700;2022-08-23T01:02:23;7.72;;;2.92;;
25511;SDS011;13414;44.534;18.700;2022-08-23T01:04:53;5.90;;;3.53;;
25511;SDS011;13414;44.534;18.700;2022-08-23T01:07:29;6.78;;;4.68;;
25511;SDS011;13414;44.534;18.700;2022-08-23T01:10:04;9.98;;;4.75;;
25511;SDS011;13414;44.534;18.700;2022-08-23T01:12:38;8.35;;;3.60;;
25511;SDS011;13414;44.534;18.700;2022-08-23T01:15:12;5.80;;;3.25;;
25511;SDS011;13414;44.534;18.700;2022-08-23T01:17:45;7.70;;;3.45;;
25511;SDS011;13414;44.534;18.700;2022-08-23T01:20:19;10.23;;;3.00;;
25511;SDS011;13414;44.534;18.700;2022-08-23T01:22:51;11.50;;;3.83;;
25511;SDS011;13414;44.534;18.700;2022-08-23T01:25:27;7.68;;;3.70;;
25511;SDS011;13414;44.534;18.700;2022-08-23T01:27:57;6.38;;;3.70;;
25511;SDS011;13414;44.534;18.700;2022-08-23T01:30:25;9.90;;;4.10;;
25511;SDS011;13414;44.534;18.700;2022-08-23T01:32:56;5.43;;;3.90;;
25511;SDS011;13414;44.534;18.700;2022-08-23T01:35:29;4.47;;;3.17;;
25511;SDS011;13414;44.534;18.700;2022-08-23T01:38:01;5.88;;;3.17;;
25511;SDS011;13414;44.534;18.700;2022-08-23T01:40:30;10.15;;;3.38;;
25511;SDS011;13414;44.534;18.700;2022-08-23T01:42:58;7.38;;;3.10;;
25511;SDS011;13414;44.534;18.700;2022-08-23T01:45:26;8.82;;;2.95;;
25511;SDS011;13414;44.534;18.700;2022-08-23T01:47:55;6.18;;;3.38;;
25511;SDS011;13414;44.534;18.700;2022-08-23T01:50:24;6.50;;;2.88;;
25511;SDS011;13414;44.534;18.700;2022-08-23T01:52:52;5.00;;;2.85;;
25511;SDS011;13414;44.534;18.700;2022-08-23T01:55:22;9.10;;;3.15;;
25511;SDS011;13414;44.534;18.700;2022-08-23T01:57:52;9.10;;;2.63;;
25511;SDS011;13414;44.534;18.700;2022-08-23T02:00:22;6.68;;;3.47;;
25511;SDS011;13414;44.534;18.700;2022-08-23T02:02:53;8.20;;;2.90;;
25511;SDS011;13414;44.534;18.700;2022-08-23T02:05:21;5.70;;;3.30;;
25511;SDS011;13414;44.534;18.700;2022-08-23T02:07:48;9.07;;;4.07;;
25511;SDS011;13414;44.534;18.700;2022-08-23T02:10:17;11.05;;;3.85;;
25511;SDS011;13414;44.534;18.700;2022-08-23T02:12:45;9.40;;;3.75;;
25511;SDS011;13414;44.534;18.700;2022-08-23T02:15:16;9.63;;;3.40;;
25511;SDS011;13414;44.534;18.700;2022-08-23T02:17:45;4.43;;;2.72;;
25511;SDS011;13414;44.534;18.700;2022-08-23T02:20:13;10.50;;;2.88;;
25511;SDS011;13414;44.534;18.700;2022-08-23T02:22:40;8.15;;;3.45;;
25511;SDS011;13414;44.534;18.700;2022-08-23T02:25:08;4.45;;;2.90;;
25511;SDS011;13414;44.534;18.700;2022-08-23T02:27:35;9.07;;;3.20;;
25511;SDS011;13414;44.534;18.700;2022-08-23T02:30:03;5.18;;;2.97;;
25511;SDS011;13414;44.534;18.700;2022-08-23T02:32:33;10.27;;;4.13;;
25511;SDS011;13414;44.534;18.700;2022-08-23T02:35:00;6.50;;;4.00;;
25511;SDS011;13414;44.534;18.700;2022-08-23T02:37:28;12.27;;;4.25;;
25511;SDS011;13414;44.534;18.700;2022-08-23T02:39:55;8.25;;;4.13;;
25511;SDS011;13414;44.534;18.700;2022-08-23T02:42:22;6.68;;;3.95;;
25511;SDS011;13414;44.534;18.700;2022-08-23T02:44:50;7.75;;;2.80;;
25511;SDS011;13414;44.534;18.700;2022-08-23T02:47:18;6.93;;;3.08;;
25511;SDS011;13414;44.534;18.700;2022-08-23T02:50:00;10.50;;;4.50;;
25511;SDS011;13414;44.534;18.700;2022-08-23T02:52:27;7.93;;;3.42;;
25511;SDS011;13414;44.534;18.700;2022-08-23T02:54:55;11.82;;;4.15;;
25511;SDS011;13414;44.534;18.700;2022-08-23T02:57:22;11.25;;;4.32;;
25511;SDS011;13414;44.534;18.700;2022-08-23T02:59:52;7.90;;;4.55;;
25511;SDS011;13414;44.534;18.700;2022-08-23T03:02:20;9.30;;;4.25;;
25511;SDS011;13414;44.534;18.700;2022-08-23T03:04:48;6.60;;;4.32;;
25511;SDS011;13414;44.534;18.700;2022-08-23T03:07:17;9.05;;;4.53;;
25511;SDS011;13414;44.534;18.700;2022-08-23T03:09:45;6.25;;;4.03;;
25511;SDS011;13414;44.534;18.700;2022-08-23T03:12:12;9.88;;;4.53;;
25511;SDS011;13414;44.534;18.700;2022-08-23T03:14:46;11.35;;;4.30;;
25511;SDS011;13414;44.534;18.700;2022-08-23T03:17:15;7.82;;;5.00;;
25511;SDS011;13414;44.534;18.700;2022-08-23T03:19:43;8.77;;;4.68;;
25511;SDS011;13414;44.534;18.700;2022-08-23T03:22:11;10.05;;;4.20;;
25511;SDS011;13414;44.534;18.700;2022-08-23T03:24:40;7.93;;;4.07;;
25511;SDS011;13414;44.534;18.700;2022-08-23T03:27:08;8.90;;;3.97;;
25511;SDS011;13414;44.534;18.700;2022-08-23T03:29:38;11.13;;;4.10;;
25511;SDS011;13414;44.534;18.700;2022-08-23T03:32:06;10.20;;;4.13;;
25511;SDS011;13414;44.534;18.700;2022-08-23T03:34:36;7.10;;;4.05;;
25511;SDS011;13414;44.534;18.700;2022-08-23T03:37:06;16.25;;;4.50;;
25511;SDS011;13414;44.534;18.700;2022-08-23T03:39:34;8.32;;;4.40;;
25511;SDS011;13414;44.534;18.700;2022-08-23T03:42:03;9.15;;;4.50;;
25511;SDS011;13414;44.534;18.700;2022-08-23T03:44:32;9.50;;;4.60;;
25511;SDS011;13414;44.534;18.700;2022-08-23T03:47:00;7.65;;;4.75;;
25511;SDS011;13414;44.534;18.700;2022-08-23T03:49:28;5.93;;;3.83;;
25511;SDS011;13414;44.534;18.700;2022-08-23T03:51:55;7.20;;;4.43;;
25511;SDS011;13414;44.534;18.700;2022-08-23T03:54:25;8.57;;;4.40;;
25511;SDS011;13414;44.534;18.700;2022-08-23T03:56:54;7.45;;;4.18;;
25511;SDS011;13414;44.534;18.700;2022-08-23T03:59:28;5.03;;;3.95;;
25511;SDS011;13414;44.534;18.700;2022-08-23T04:01:57;7.18;;;4.10;;
25511;SDS011;13414;44.534;18.700;2022-08-23T04:04:25;6.88;;;3.58;;
25511;SDS011;13414;44.534;18.700;2022-08-23T04:07:11;7.72;;;4.00;;
25511;SDS011;13414;44.534;18.700;2022-08-23T04:09:44;6.53;;;3.33;;
25511;SDS011;13414;44.534;18.700;2022-08-23T04:12:11;5.03;;;3.45;;
25511;SDS011;13414;44.534;18.700;2022-08-23T04:14:41;8.75;;;3.72;;
25511;SDS011;13414;44.534;18.700;2022-08-23T04:17:10;8.52;;;3.70;;
25511;SDS011;13414;44.534;18.700;2022-08-23T04:19:37;13.93;;;3.58;;
25511;SDS011;13414;44.534;18.700;2022-08-23T04:22:06;7.20;;;3.22;;
25511;SDS011;13414;44.534;18.700;2022-08-23T04:24:39;14.43;;;4.05;;
25511;SDS011;13414;44.534;18.700;2022-08-23T04:27:07;8.50;;;4.25;;
25511;SDS011;13414;44.534;18.700;2022-08-23T04:29:35;9.80;;;4.55;;
25511;SDS011;13414;44.534;18.700;2022-08-23T04:32:06;16.63;;;5.38;;
25511;SDS011;13414;44.534;18.700;2022-08-23T04:34:34;15.15;;;4.95;;
25511;SDS011;13414;44.534;18.700;2022-08-23T04:37:05;10.13;;;5.82;;
25511;SDS011;13414;44.534;18.700;2022-08-23T04:39:32;11.75;;;7.82;;
25511;SDS011;13414;44.534;18.700;2022-08-23T04:42:22;12.02;;;7.78;;
25511;SDS011;13414;44.534;18.700;2022-08-23T04:44:52;11.55;;;7.13;;
25511;SDS011;13414;44.534;18.700;2022-08-23T04:47:21;14.15;;;8.10;;
25511;SDS011;13414;44.534;18.700;2022-08-23T04:49:50;16.48;;;8.15;;
25511;SDS011;13414;44.534;18.700;2022-08-23T04:52:18;17.23;;;8.05;;
25511;SDS011;13414;44.534;18.700;2022-08-23T04:54:48;17.27;;;8.00;;
25511;SDS011;13414;44.534;18.700;2022-08-23T04:57:37;19.48;;;9.20;;
25511;SDS011;13414;44.534;18.700;2022-08-23T05:00:08;23.42;;;7.82;;
25511;SDS011;13414;44.534;18.700;2022-08-23T05:02:42;14.05;;;9.48;;
25511;SDS011;13414;44.534;18.700;2022-08-23T05:05:10;13.35;;;9.55;;
25511;SDS011;13414;44.534;18.700;2022-08-23T05:07:42;12.75;;;7.57;;
25511;SDS011;13414;44.534;18.700;2022-08-23T05:10:11;14.27;;;6.88;;
25511;SDS011;13414;44.534;18.700;2022-08-23T05:12:43;28.05;;;8.55;;
25511;SDS011;13414;44.534;18.700;2022-08-23T05:15:11;13.65;;;7.13;;
25511;SDS011;13414;44.534;18.700;2022-08-23T05:17:44;21.25;;;9.05;;
25511;SDS011;13414;44.534;18.700;2022-08-23T05:20:12;13.93;;;8.35;;
25511;SDS011;13414;44.534;18.700;2022-08-23T05:22:40;11.55;;;8.40;;
25511;SDS011;13414;44.534;18.700;2022-08-23T05:25:28;19.00;;;9.10;;
25511;SDS011;13414;44.534;18.700;2022-08-23T05:28:10;18.42;;;9.43;;
25511;SDS011;13414;44.534;18.700;2022-08-23T05:30:37;14.48;;;10.25;;
25511;SDS011;13414;44.534;18.700;2022-08-23T05:33:06;15.93;;;10.82;;
25511;SDS011;13414;44.534;18.700;2022-08-23T05:35:34;11.15;;;8.98;;
25511;SDS011;13414;44.534;18.700;2022-08-23T05:38:02;15.38;;;9.23;;
25511;SDS011;13414;44.534;18.700;2022-08-23T05:40:30;19.27;;;9.98;;
25511;SDS011;13414;44.534;18.700;2022-08-23T05:43:06;15.02;;;8.43;;
25511;SDS011;13414;44.534;18.700;2022-08-23T05:45:33;11.65;;;7.47;;
25511;SDS011;13414;44.534;18.700;2022-08-23T05:48:01;9.70;;;7.13;;
25511;SDS011;13414;44.534;18.700;2022-08-23T05:50:40;11.50;;;7.10;;
25511;SDS011;13414;44.534;18.700;2022-08-23T05:53:08;16.25;;;8.40;;
25511;SDS011;13414;44.534;18.700;2022-08-23T05:55:36;31.38;;;9.35;;
25511;SDS011;13414;44.534;18.700;2022-08-23T05:58:14;21.63;;;9.13;;
25511;SDS011;13414;44.534;18.700;2022-08-23T06:00:43;39.65;;;10.50;;
25511;SDS011;13414;44.534;18.700;2022-08-23T06:03:11;42.90;;;11.45;;
25511;SDS011;13414;44.534;18.700;2022-08-23T06:05:40;37.13;;;12.90;;
25511;SDS011;13414;44.534;18.700;2022-08-23T06:08:09;59.25;;;17.40;;
25511;SDS011;13414;44.534;18.700;2022-08-23T06:10:36;41.15;;;17.05;;
25511;SDS011;13414;44.534;18.700;2022-08-23T06:13:14;26.27;;;18.38;;
25511;SDS011;13414;44.534;18.700;2022-08-23T06:15:42;29.90;;;22.00;;
25511;SDS011;13414;44.534;18.700;2022-08-23T06:18:10;28.73;;;23.05;;
25511;SDS011;13414;44.534;18.700;2022-08-23T06:20:41;51.85;;;27.67;;
25511;SDS011;13414;44.534;18.700;2022-08-23T06:23:13;25.00;;;17.58;;
25511;SDS011;13414;44.534;18.700;2022-08-23T06:25:41;23.23;;;16.17;;
25511;SDS011;13414;44.534;18.700;2022-08-23T06:28:10;33.28;;;15.70;;
25511;SDS011;13414;44.534;18.700;2022-08-23T06:30:39;24.20;;;11.38;;
25511;SDS011;13414;44.534;18.700;2022-08-23T06:33:23;17.60;;;10.82;;
25511;SDS011;13414;44.534;18.700;2022-08-23T06:36:11;18.63;;;9.77;;
25511;SDS011;13414;44.534;18.700;2022-08-23T06:39:01;44.58;;;10.32;;
25511;SDS011;13414;44.534;18.700;2022-08-23T06:41:52;80.97;;;13.93;;
25511;SDS011;13414;44.534;18.700;2022-08-23T06:44:29;19.70;;;6.95;;
25511;SDS011;13414;44.534;18.700;2022-08-23T06:47:12;10.98;;;7.18;;
25511;SDS011;13414;44.534;18.700;2022-08-23T06:49:40;15.52;;;6.53;;
25511;SDS011;13414;44.534;18.700;2022-08-23T06:52:08;10.88;;;7.65;;
25511;SDS011;13414;44.534;18.700;2022-08-23T06:55:02;17.67;;;10.90;;
25511;SDS011;13414;44.534;18.700;2022-08-23T06:57:40;19.05;;;6.72;;
25511;SDS011;13414;44.534;18.700;2022-08-23T07:00:29;17.50;;;7.72;;
25511;SDS011;13414;44.534;18.700;2022-08-23T07:03:19;14.73;;;5.90;;
25511;SDS011;13414;44.534;18.700;2022-08-23T07:06:16;8.90;;;4.88;;
25511;SDS011;13414;44.534;18.700;2022-08-23T07:08:45;8.35;;;4.90;;
25511;SDS011;13414;44.534;18.700;2022-08-23T07:11:14;8.48;;;4.57;;
25511;SDS011;13414;44.534;18.700;2022-08-23T07:13:41;8.55;;;5.32;;
25511;SDS011;13414;44.534;18.700;2022-08-23T07:16:09;10.00;;;5.70;;
25511;SDS011;13414;44.534;18.700;2022-08-23T07:18:37;6.35;;;4.75;;
25511;SDS011;13414;44.534;18.700;2022-08-23T07:21:05;7.78;;;4.57;;
25511;SDS011;13414;44.534;18.700;2022-08-23T07:23:35;8.05;;;4.60;;
25511;SDS011;13414;44.534;18.700;2022-08-23T07:26:07;13.75;;;4.68;;
25511;SDS011;13414;44.534;18.700;2022-08-23T07:28:37;11.88;;;5.50;;
25511;SDS011;13414;44.534;18.700;2022-08-23T07:31:06;10.52;;;5.22;;
25511;SDS011;13414;44.534;18.700;2022-08-23T07:33:35;9.98;;;4.50;;
25511;SDS011;13414;44.534;18.700;2022-08-23T07:36:11;6.95;;;4.22;;
25511;SDS011;13414;44.534;18.700;2022-08-23T07:38:41;7.72;;;4.05;;
25511;SDS011;13414;44.534;18.700;2022-08-23T07:41:11;10.23;;;4.90;;
25511;SDS011;13414;44.534;18.700;2022-08-23T07:43:39;6.50;;;4.68;;
25511;SDS011;13414;44.534;18.700;2022-08-23T07:46:08;8.57;;;4.93;;
25511;SDS011;13414;44.534;18.700;2022-08-23T07:48:36;6.80;;;4.70;;
25511;SDS011;13414;44.534;18.700;2022-08-23T07:51:24;6.05;;;4.45;;
25511;SDS011;13414;44.534;18.700;2022-08-23T07:53:52;6.70;;;4.45;;
25511;SDS011;13414;44.534;18.700;2022-08-23T07:56:22;6.55;;;4.97;;
25511;SDS011;13414;44.534;18.700;2022-08-23T07:59:12;7.70;;;5.28;;
25511;SDS011;13414;44.534;18.700;2022-08-23T08:01:59;9.25;;;6.28;;
25511;SDS011;13414;44.534;18.700;2022-08-23T08:04:27;7.95;;;5.28;;
25511;SDS011;13414;44.534;18.700;2022-08-23T08:06:55;6.70;;;5.00;;
25511;SDS011;13414;44.534;18.700;2022-08-23T08:09:24;6.45;;;5.47;;
25511;SDS011;13414;44.534;18.700;2022-08-23T08:11:53;10.65;;;5.70;;
25511;SDS011;13414;44.534;18.700;2022-08-23T08:14:25;10.48;;;6.28;;
25511;SDS011;13414;44.534;18.700;2022-08-23T08:16:57;9.95;;;6.07;;
25511;SDS011;13414;44.534;18.700;2022-08-23T08:19:48;8.25;;;5.47;;
25511;SDS011;13414;44.534;18.700;2022-08-23T08:22:45;15.57;;;5.78;;
25511;SDS011;13414;44.534;18.700;2022-08-23T08:25:32;8.95;;;6.75;;
25511;SDS011;13414;44.534;18.700;2022-08-23T08:28:04;12.00;;;8.05;;
25511;SDS011;13414;44.534;18.700;2022-08-23T08:30:32;11.30;;;7.65;;
25511;SDS011;13414;44.534;18.700;2022-08-23T08:33:01;11.02;;;6.25;;
25511;SDS011;13414;44.534;18.700;2022-08-23T08:35:30;9.77;;;5.80;;
25511;SDS011;13414;44.534;18.700;2022-08-23T08:37:58;11.13;;;6.47;;
25511;SDS011;13414;44.534;18.700;2022-08-23T08:40:29;12.60;;;6.68;;
25511;SDS011;13414;44.534;18.700;2022-08-23T08:43:21;8.18;;;6.10;;
25511;SDS011;13414;44.534;18.700;2022-08-23T08:45:58;10.63;;;6.57;;
25511;SDS011;13414;44.534;18.700;2022-08-23T08:48:34;9.63;;;7.32;;
25511;SDS011;13414;44.534;18.700;2022-08-23T08:51:13;8.88;;;7.28;;
25511;SDS011;13414;44.534;18.700;2022-08-23T08:53:55;11.88;;;6.40;;
25511;SDS011;13414;44.534;18.700;2022-08-23T08:56:29;8.45;;;6.35;;
25511;SDS011;13414;44.534;18.700;2022-08-23T08:59:24;9.60;;;6.72;;
25511;SDS011;13414;44.534;18.700;2022-08-23T09:01:54;12.52;;;7.75;;
25511;SDS011;13414;44.534;18.700;2022-08-23T09:04:32;14.48;;;8.10;;
25511;SDS011;13414;44.534;18.700;2022-08-23T09:07:06;12.32;;;7.40;;
25511;SDS011;13414;44.534;18.700;2022-08-23T09:09:53;10.60;;;6.72;;
25511;SDS011;13414;44.534;18.700;2022-08-23T09:12:59;9.77;;;7.43;;
25511;SDS011;13414;44.534;18.700;2022-08-23T09:15:44;10.23;;;7.63;;
25511;SDS011;13414;44.534;18.700;2022-08-23T09:18:22;18.98;;;12.77;;
25511;SDS011;13414;44.534;18.700;2022-08-23T09:20:51;21.63;;;12.23;;
25511;SDS011;13414;44.534;18.700;2022-08-23T09:23:32;15.57;;;10.68;;
25511;SDS011;13414;44.534;18.700;2022-08-23T09:26:14;18.95;;;10.55;;
25511;SDS011;13414;44.534;18.700;2022-08-23T09:28:45;18.30;;;12.15;;
25511;SDS011;13414;44.534;18.700;2022-08-23T09:31:12;18.02;;;13.10;;
25511;SDS011;13414;44.534;18.700;2022-08-23T09:34:06;17.88;;;10.48;;
25511;SDS011;13414;44.534;18.700;2022-08-23T09:36:44;17.45;;;12.75;;
25511;SDS011;13414;44.534;18.700;2022-08-23T09:39:22;19.52;;;14.23;;
25511;SDS011;13414;44.534;18.700;2022-08-23T09:41:53;23.70;;;18.08;;
25511;SDS011;13414;44.534;18.700;2022-08-23T09:44:34;15.00;;;12.38;;
25511;SDS011;13414;44.534;18.700;2022-08-23T09:47:10;18.50;;;13.52;;
25511;SDS011;13414;44.534;18.700;2022-08-23T09:49:45;17.98;;;12.82;;
25511;SDS011;13414;44.534;18.700;2022-08-23T09:52:19;20.35;;;13.50;;
25511;SDS011;13414;44.534;18.700;2022-08-23T09:54:57;20.42;;;13.15;;
25511;SDS011;13414;44.534;18.700;2022-08-23T09:57:29;18.08;;;12.20;;
25511;SDS011;13414;44.534;18.700;2022-08-23T09:59:59;17.45;;;11.90;;
25511;SDS011;13414;44.534;18.700;2022-08-23T10:02:49;22.55;;;17.52;;
25511;SDS011;13414;44.534;18.700;2022-08-23T10:05:28;20.05;;;15.30;;
25511;SDS011;13414;44.534;18.700;2022-08-23T10:08:02;13.75;;;10.25;;
25511;SDS011;13414;44.534;18.700;2022-08-23T10:10:34;24.35;;;15.90;;
25511;SDS011;13414;44.534;18.700;2022-08-23T10:13:08;19.98;;;14.27;;
25511;SDS011;13414;44.534;18.700;2022-08-23T10:15:40;15.38;;;13.13;;
25511;SDS011;13414;44.534;18.700;2022-08-23T10:18:20;19.63;;;16.08;;
25511;SDS011;13414;44.534;18.700;2022-08-23T10:21:00;22.35;;;16.58;;
25511;SDS011;13414;44.534;18.700;2022-08-23T10:23:37;21.08;;;14.30;;
25511;SDS011;13414;44.534;18.700;2022-08-23T10:26:16;14.07;;;12.55;;
25511;SDS011;13414;44.534;18.700;2022-08-23T10:28:52;17.83;;;13.75;;
25511;SDS011;13414;44.534;18.700;2022-08-23T10:31:42;22.02;;;13.85;;
25511;SDS011;13414;44.534;18.700;2022-08-23T10:34:23;27.25;;;17.60;;
25511;SDS011;13414;44.534;18.700;2022-08-23T10:37:04;14.82;;;11.48;;
25511;SDS011;13414;44.534;18.700;2022-08-23T10:39:40;12.38;;;11.07;;
25511;SDS011;13414;44.534;18.700;2022-08-23T10:42:15;15.20;;;13.57;;
25511;SDS011;13414;44.534;18.700;2022-08-23T10:44:53;20.80;;;17.65;;
25511;SDS011;13414;44.534;18.700;2022-08-23T10:47:28;20.77;;;14.03;;
25511;SDS011;13414;44.534;18.700;2022-08-23T10:52:34;13.35;;;11.00;;
25511;SDS011;13414;44.534;18.700;2022-08-23T10:55:12;16.27;;;12.27;;
25511;SDS011;13414;44.534;18.700;2022-08-23T10:58:04;19.90;;;13.35;;
25511;SDS011;13414;44.534;18.700;2022-08-23T11:00:34;14.73;;;12.95;;
25511;SDS011;13414;44.534;18.700;2022-08-23T11:03:06;16.42;;;13.25;;
25511;SDS011;13414;44.534;18.700;2022-08-23T11:05:45;16.98;;;14.57;;
25511;SDS011;13414;44.534;18.700;2022-08-23T11:08:59;17.20;;;12.75;;
25511;SDS011;13414;44.534;18.700;2022-08-23T11:11:35;18.50;;;14.30;;
25511;SDS011;13414;44.534;18.700;2022-08-23T11:14:08;17.13;;;14.10;;
25511;SDS011;13414;44.534;18.700;2022-08-23T11:16:37;23.52;;;15.68;;
25511;SDS011;13414;44.534;18.700;2022-08-23T11:19:11;13.15;;;10.35;;
25511;SDS011;13414;44.534;18.700;2022-08-23T11:21:46;10.95;;;8.10;;
25511;SDS011;13414;44.534;18.700;2022-08-23T11:24:34;9.00;;;7.57;;
25511;SDS011;13414;44.534;18.700;2022-08-23T11:27:28;11.07;;;7.40;;
25511;SDS011;13414;44.534;18.700;2022-08-23T11:33:08;7.10;;;5.57;;
25511;SDS011;13414;44.534;18.700;2022-08-23T11:35:43;9.33;;;7.13;;
25511;SDS011;13414;44.534;18.700;2022-08-23T11:38:45;5.53;;;4.05;;
25511;SDS011;13414;44.534;18.700;2022-08-23T11:44:35;6.45;;;5.40;;
25511;SDS011;13414;44.534;18.700;2022-08-23T11:47:08;8.70;;;5.38;;
25511;SDS011;13414;44.534;18.700;2022-08-23T11:53:03;7.88;;;6.55;;
25511;SDS011;13414;44.534;18.700;2022-08-23T12:01:35;5.03;;;4.50;;
25511;SDS011;13414;44.534;18.700;2022-08-23T12:04:06;6.03;;;5.00;;
25511;SDS011;13414;44.534;18.700;2022-08-23T12:06:37;5.70;;;4.82;;
25511;SDS011;13414;44.534;18.700;2022-08-23T12:09:12;4.38;;;3.97;;
25511;SDS011;13414;44.534;18.700;2022-08-23T12:12:08;4.57;;;3.63;;
25511;SDS011;13414;44.534;18.700;2022-08-23T12:14:52;4.85;;;4.05;;
25511;SDS011;13414;44.534;18.700;2022-08-23T12:20:28;4.10;;;3.70;;
25511;SDS011;13414;44.534;18.700;2022-08-23T12:23:04;30.83;;;25.15;;
25511;SDS011;13414;44.534;18.700;2022-08-23T12:25:38;9.60;;;6.38;;
25511;SDS011;13414;44.534;18.700;2022-08-23T12:28:10;6.05;;;5.45;;
25511;SDS011;13414;44.534;18.700;2022-08-23T12:30:58;5.95;;;5.35;;
25511;SDS011;13414;44.534;18.700;2022-08-23T12:33:31;5.90;;;4.45;;
25511;SDS011;13414;44.534;18.700;2022-08-23T12:36:07;9.93;;;6.78;;
25511;SDS011;13414;44.534;18.700;2022-08-23T12:38:44;8.95;;;7.10;;
25511;SDS011;13414;44.534;18.700;2022-08-23T12:41:21;12.20;;;8.18;;
25511;SDS011;13414;44.534;18.700;2022-08-23T12:43:55;10.43;;;8.75;;
25511;SDS011;13414;44.534;18.700;2022-08-23T12:46:33;10.88;;;8.85;;
25511;SDS011;13414;44.534;18.700;2022-08-23T12:49:03;20.90;;;14.55;;
25511;SDS011;13414;44.534;18.700;2022-08-23T12:51:38;16.20;;;13.52;;
25511;SDS011;13414;44.534;18.700;2022-08-23T12:54:13;8.95;;;7.30;;
25511;SDS011;13414;44.534;18.700;2022-08-23T12:56:43;14.68;;;10.38;;
25511;SDS011;13414;44.534;18.700;2022-08-23T12:59:24;18.75;;;12.00;;
25511;SDS011;13414;44.534;18.700;2022-08-23T13:01:59;14.30;;;10.05;;
25511;SDS011;13414;44.534;18.700;2022-08-23T13:04:28;15.60;;;10.43;;
25511;SDS011;13414;44.534;18.700;2022-08-23T13:06:57;16.48;;;10.20;;
25511;SDS011;13414;44.534;18.700;2022-08-23T13:09:27;20.33;;;11.20;;
25511;SDS011;13414;44.534;18.700;2022-08-23T13:11:57;11.75;;;8.35;;
25511;SDS011;13414;44.534;18.700;2022-08-23T13:14:32;11.25;;;8.45;;
25511;SDS011;13414;44.534;18.700;2022-08-23T13:19:43;12.70;;;10.13;;
25511;SDS011;13414;44.534;18.700;2022-08-23T13:22:12;15.45;;;9.07;;
25511;SDS011;13414;44.534;18.700;2022-08-23T13:24:57;12.35;;;8.52;;
25511;SDS011;13414;44.534;18.700;2022-08-23T13:27:29;15.77;;;9.82;;
25511;SDS011;13414;44.534;18.700;2022-08-23T13:29:58;13.93;;;9.20;;
25511;SDS011;13414;44.534;18.700;2022-08-23T13:32:33;19.85;;;10.88;;
25511;SDS011;13414;44.534;18.700;2022-08-23T13:37:52;18.08;;;12.30;;
25511;SDS011;13414;44.534;18.700;2022-08-23T13:40:23;17.10;;;13.07;;
25511;SDS011;13414;44.534;18.700;2022-08-23T13:42:52;18.17;;;12.77;;
25511;SDS011;13414;44.534;18.700;2022-08-23T13:45:24;19.88;;;14.43;;
25511;SDS011;13414;44.534;18.700;2022-08-23T13:47:56;20.90;;;15.10;;
25511;SDS011;13414;44.534;18.700;2022-08-23T13:50:26;24.33;;;14.23;;
25511;SDS011;13414;44.534;18.700;2022-08-23T13:52:55;23.63;;;16.08;;
25511;SDS011;13414;44.534;18.700;2022-08-23T13:55:23;28.67;;;17.02;;
25511;SDS011;13414;44.534;18.700;2022-08-23T13:57:52;31.42;;;23.20;;
25511;SDS011;13414;44.534;18.700;2022-08-23T14:00:20;26.88;;;18.35;;
25511;SDS011;13414;44.534;18.700;2022-08-23T14:02:48;22.98;;;17.65;;
25511;SDS011;13414;44.534;18.700;2022-08-23T14:05:18;22.38;;;15.52;;
25511;SDS011;13414;44.534;18.700;2022-08-23T14:07:47;19.20;;;14.63;;
25511;SDS011;13414;44.534;18.700;2022-08-23T14:10:17;26.15;;;16.42;;
25511;SDS011;13414;44.534;18.700;2022-08-23T14:12:46;23.95;;;15.02;;
25511;SDS011;13414;44.534;18.700;2022-08-23T14:15:15;20.40;;;13.48;;
25511;SDS011;13414;44.534;18.700;2022-08-23T14:17:43;25.83;;;16.35;;
25511;SDS011;13414;44.534;18.700;2022-08-23T14:20:13;28.65;;;16.45;;
25511;SDS011;13414;44.534;18.700;2022-08-23T14:22:43;28.92;;;17.85;;
25511;SDS011;13414;44.534;18.700;2022-08-23T14:25:11;22.98;;;16.02;;
25511;SDS011;13414;44.534;18.700;2022-08-23T14:27:40;25.45;;;17.75;;
25511;SDS011;13414;44.534;18.700;2022-08-23T14:30:11;23.85;;;15.25;;
25511;SDS011;13414;44.534;18.700;2022-08-23T14:32:48;27.38;;;17.30;;
25511;SDS011;13414;44.534;18.700;2022-08-23T14:35:15;30.92;;;16.55;;
25511;SDS011;13414;44.534;18.700;2022-08-23T14:37:44;22.60;;;14.85;;
25511;SDS011;13414;44.534;18.700;2022-08-23T14:40:12;23.35;;;15.63;;
25511;SDS011;13414;44.534;18.700;2022-08-23T14:42:40;23.92;;;13.25;;
25511;SDS011;13414;44.534;18.700;2022-08-23T14:45:08;22.13;;;15.00;;
25511;SDS011;13414;44.534;18.700;2022-08-23T14:47:36;35.10;;;24.85;;
25511;SDS011;13414;44.534;18.700;2022-08-23T14:50:05;31.42;;;21.27;;
25511;SDS011;13414;44.534;18.700;2022-08-23T14:52:35;19.95;;;14.73;;
25511;SDS011;13414;44.534;18.700;2022-08-23T14:55:06;21.73;;;15.48;;
25511;SDS011;13414;44.534;18.700;2022-08-23T14:57:34;28.42;;;18.25;;
25511;SDS011;13414;44.534;18.700;2022-08-23T15:00:02;25.83;;;19.15;;
25511;SDS011;13414;44.534;18.700;2022-08-23T15:02:30;26.75;;;19.33;;
25511;SDS011;13414;44.534;18.700;2022-08-23T15:05:00;23.45;;;16.73;;
25511;SDS011;13414;44.534;18.700;2022-08-23T15:07:28;19.63;;;14.23;;
25511;SDS011;13414;44.534;18.700;2022-08-23T15:09:55;19.33;;;12.32;;
25511;SDS011;13414;44.534;18.700;2022-08-23T15:12:24;20.45;;;12.77;;
25511;SDS011;13414;44.534;18.700;2022-08-23T15:14:51;19.23;;;13.55;;
25511;SDS011;13414;44.534;18.700;2022-08-23T15:17:18;17.88;;;14.70;;
25511;SDS011;13414;44.534;18.700;2022-08-23T15:19:46;21.55;;;14.32;;
25511;SDS011;13414;44.534;18.700;2022-08-23T15:22:13;19.98;;;14.50;;
25511;SDS011;13414;44.534;18.700;2022-08-23T15:24:41;19.75;;;14.77;;